IFA1143 EPWA-EKCH
Flight info
| Callsign | IFA1143 |
|---|---|
| Flight time | 0h 57m |
| Altitude | 40000 |
| Route | OLILA L621 GRUDA DCT LUSID DCT ELVIX L975 TIDVU |
| Aircraft | C750/M-SBDE3FGHRWXY/S |
Departure
| Time | 2026-04-24 19:29 |
|---|---|
| Airport | Warsaw Chopin Airport (EPWA) |
Arrival
| Time | 2026-04-24 20:27 |
|---|---|
| Airport | Copenhagen Kastrup Airport (EKCH) |
| Time | Latitude | Longitude | Altitude | Speed | Heading |
|---|---|---|---|---|---|
| 2026-04-24 19:03 | 52.17600 | 20.96332 | 330 ft | 0 kts | 242° |
| 2026-04-24 19:21 | 52.17600 | 20.96330 | 330 ft | 1 kts | 242° |
| 2026-04-24 19:22 | 52.17582 | 20.96279 | 331 ft | 6 kts | 242° |
| 2026-04-24 19:22 | 52.17563 | 20.96246 | 332 ft | 2 kts | 152° |
| 2026-04-24 19:22 | 52.17529 | 20.96276 | 331 ft | 11 kts | 152° |
| 2026-04-24 19:22 | 52.17414 | 20.96376 | 331 ft | 25 kts | 151° |
| 2026-04-24 19:23 | 52.17251 | 20.96520 | 330 ft | 27 kts | 151° |
| 2026-04-24 19:23 | 52.17081 | 20.96667 | 329 ft | 28 kts | 152° |
| 2026-04-24 19:23 | 52.16909 | 20.96818 | 327 ft | 28 kts | 153° |
| 2026-04-24 19:23 | 52.16732 | 20.96972 | 330 ft | 27 kts | 152° |
| 2026-04-24 19:24 | 52.16649 | 20.97095 | 332 ft | 12 kts | 104° |
| 2026-04-24 19:24 | 52.16617 | 20.97218 | 334 ft | 11 kts | 115° |
| 2026-04-24 19:24 | 52.16581 | 20.97345 | 334 ft | 12 kts | 115° |
| 2026-04-24 19:24 | 52.16543 | 20.97481 | 334 ft | 13 kts | 115° |
| 2026-04-24 19:25 | 52.16502 | 20.97622 | 334 ft | 14 kts | 115° |
| 2026-04-24 19:25 | 52.16462 | 20.97766 | 333 ft | 9 kts | 114° |
| 2026-04-24 19:25 | 52.16408 | 20.97801 | 332 ft | 10 kts | 199° |
| 2026-04-24 19:25 | 52.16336 | 20.97746 | 330 ft | 12 kts | 207° |
| 2026-04-24 19:26 | 52.16297 | 20.97691 | 330 ft | 5 kts | 301° |
| 2026-04-24 19:26 | 52.16305 | 20.97667 | 330 ft | 0 kts | 294° |
| 2026-04-24 19:28 | 52.16311 | 20.97646 | 331 ft | 14 kts | 294° |
| 2026-04-24 19:29 | 52.16942 | 20.95328 | 524 ft | 175 kts | 294° |
| 2026-04-24 19:29 | 52.17460 | 20.93496 | 954 ft | 188 kts | 296° |
| 2026-04-24 19:29 | 52.18021 | 20.91544 | 1421 ft | 190 kts | 296° |
| 2026-04-24 19:30 | 52.18774 | 20.89844 | 1825 ft | 187 kts | 329° |
| 2026-04-24 19:30 | 52.19982 | 20.89108 | 2240 ft | 186 kts | 340° |
| 2026-04-24 19:30 | 52.21172 | 20.88329 | 2640 ft | 185 kts | 336° |
| 2026-04-24 19:30 | 52.22260 | 20.87245 | 3023 ft | 185 kts | 318° |
| 2026-04-24 19:31 | 52.23195 | 20.85805 | 3384 ft | 187 kts | 315° |
| 2026-04-24 19:31 | 52.24093 | 20.84260 | 4133 ft | 198 kts | 313° |
| 2026-04-24 19:31 | 52.25066 | 20.82505 | 5041 ft | 227 kts | 311° |
| 2026-04-24 19:31 | 52.26165 | 20.80477 | 5941 ft | 256 kts | 311° |
| 2026-04-24 19:32 | 52.27393 | 20.78194 | 6835 ft | 277 kts | 311° |
| 2026-04-24 19:32 | 52.28581 | 20.75980 | 7632 ft | 243 kts | 311° |
| 2026-04-24 19:32 | 52.29631 | 20.74019 | 8400 ft | 237 kts | 311° |
| 2026-04-24 19:32 | 52.30767 | 20.71896 | 9294 ft | 265 kts | 311° |
| 2026-04-24 19:33 | 52.32029 | 20.69537 | 10182 ft | 287 kts | 311° |
| 2026-04-24 19:33 | 52.33373 | 20.67023 | 11045 ft | 307 kts | 311° |
| 2026-04-24 19:33 | 52.34818 | 20.64317 | 11914 ft | 324 kts | 311° |
| 2026-04-24 19:33 | 52.36311 | 20.61519 | 12760 ft | 340 kts | 311° |
| 2026-04-24 19:34 | 52.37888 | 20.58558 | 13611 ft | 354 kts | 311° |
| 2026-04-24 19:34 | 52.39529 | 20.55474 | 14461 ft | 366 kts | 311° |
| 2026-04-24 19:34 | 52.41217 | 20.52298 | 15305 ft | 376 kts | 311° |
| 2026-04-24 19:34 | 52.42956 | 20.49023 | 16149 ft | 385 kts | 311° |
| 2026-04-24 19:35 | 52.44703 | 20.45727 | 16976 ft | 393 kts | 311° |
| 2026-04-24 19:35 | 52.46506 | 20.42322 | 17812 ft | 399 kts | 311° |
| 2026-04-24 19:35 | 52.48330 | 20.38872 | 18643 ft | 404 kts | 311° |
| 2026-04-24 19:35 | 52.50158 | 20.35410 | 19464 ft | 408 kts | 311° |
| 2026-04-24 19:36 | 52.52005 | 20.31909 | 20286 ft | 412 kts | 310° |
| 2026-04-24 19:36 | 52.53876 | 20.28355 | 21111 ft | 414 kts | 310° |
| 2026-04-24 19:36 | 52.55772 | 20.24749 | 21942 ft | 416 kts | 310° |
| 2026-04-24 19:36 | 52.57652 | 20.21166 | 22761 ft | 417 kts | 310° |
| 2026-04-24 19:37 | 52.59525 | 20.17594 | 23573 ft | 417 kts | 310° |
| 2026-04-24 19:37 | 52.61416 | 20.13982 | 24396 ft | 417 kts | 310° |
| 2026-04-24 19:37 | 52.63285 | 20.10405 | 25219 ft | 411 kts | 310° |
| 2026-04-24 19:37 | 52.65096 | 20.06934 | 26033 ft | 404 kts | 310° |
| 2026-04-24 19:38 | 52.66937 | 20.03402 | 26896 ft | 407 kts | 310° |
| 2026-04-24 19:38 | 52.68771 | 19.99879 | 27771 ft | 409 kts | 310° |
| 2026-04-24 19:38 | 52.70619 | 19.96322 | 28659 ft | 410 kts | 310° |
| 2026-04-24 19:38 | 52.72454 | 19.92785 | 29541 ft | 410 kts | 310° |
| 2026-04-24 19:39 | 52.74285 | 19.89253 | 30414 ft | 410 kts | 310° |
| 2026-04-24 19:39 | 52.76137 | 19.85674 | 31277 ft | 409 kts | 310° |
| 2026-04-24 19:39 | 52.77962 | 19.82141 | 32136 ft | 408 kts | 310° |
| 2026-04-24 19:39 | 52.79797 | 19.78586 | 32995 ft | 406 kts | 310° |
| 2026-04-24 19:40 | 52.81595 | 19.75098 | 33833 ft | 403 kts | 310° |
| 2026-04-24 19:40 | 52.83403 | 19.71585 | 34623 ft | 401 kts | 310° |
| 2026-04-24 19:40 | 52.85194 | 19.68101 | 35196 ft | 402 kts | 310° |
| 2026-04-24 19:40 | 52.86992 | 19.64598 | 35791 ft | 401 kts | 310° |
| 2026-04-24 19:41 | 52.88800 | 19.61071 | 36393 ft | 401 kts | 310° |
| 2026-04-24 19:41 | 52.90596 | 19.57560 | 37183 ft | 400 kts | 310° |
| 2026-04-24 19:41 | 52.92387 | 19.54055 | 38021 ft | 398 kts | 310° |
| 2026-04-24 19:41 | 52.94172 | 19.50558 | 38838 ft | 396 kts | 310° |
| 2026-04-24 19:42 | 52.95944 | 19.47079 | 39609 ft | 393 kts | 310° |
| 2026-04-24 19:42 | 52.97704 | 19.43621 | 39935 ft | 399 kts | 310° |
| 2026-04-24 19:42 | 52.99518 | 19.40052 | 39981 ft | 411 kts | 310° |
| 2026-04-24 19:43 | 53.03287 | 19.32617 | 39965 ft | 433 kts | 309° |
| 2026-04-24 19:43 | 53.07252 | 19.24775 | 39983 ft | 454 kts | 309° |
| 2026-04-24 19:44 | 53.11375 | 19.16591 | 39982 ft | 469 kts | 309° |
| 2026-04-24 19:44 | 53.15557 | 19.08264 | 39980 ft | 473 kts | 309° |
| 2026-04-24 19:45 | 53.19764 | 18.99859 | 39981 ft | 473 kts | 309° |
| 2026-04-24 19:45 | 53.23959 | 18.91451 | 39980 ft | 473 kts | 309° |
| 2026-04-24 19:46 | 53.28147 | 18.83029 | 39979 ft | 473 kts | 309° |
| 2026-04-24 19:46 | 53.32324 | 18.74596 | 39959 ft | 473 kts | 309° |
| 2026-04-24 19:47 | 53.36497 | 18.66146 | 39963 ft | 477 kts | 309° |
| 2026-04-24 19:47 | 53.40733 | 18.57538 | 39963 ft | 480 kts | 309° |
| 2026-04-24 19:48 | 53.44968 | 18.48903 | 39962 ft | 482 kts | 309° |
| 2026-04-24 19:48 | 53.51337 | 18.35861 | 39987 ft | 484 kts | 309° |
| 2026-04-24 19:49 | 53.59800 | 18.18424 | 40009 ft | 479 kts | 308° |
| 2026-04-24 19:50 | 53.68083 | 18.01237 | 39977 ft | 473 kts | 308° |
| 2026-04-24 19:51 | 53.74249 | 17.88368 | 39975 ft | 472 kts | 308° |
| 2026-04-24 19:52 | 53.80409 | 17.75442 | 39972 ft | 472 kts | 308° |
| 2026-04-24 19:52 | 53.84504 | 17.66811 | 39981 ft | 472 kts | 308° |
| 2026-04-24 19:53 | 53.91216 | 17.52603 | 39984 ft | 472 kts | 308° |
| 2026-04-24 19:54 | 54.03462 | 17.26462 | 39971 ft | 473 kts | 307° |
| 2026-04-24 19:54 | 54.11590 | 17.08966 | 39971 ft | 473 kts | 307° |
| 2026-04-24 19:55 | 54.18354 | 16.94309 | 39978 ft | 473 kts | 307° |
| 2026-04-24 19:55 | 54.27754 | 16.73795 | 39977 ft | 473 kts | 307° |
| 2026-04-24 19:56 | 54.35850 | 16.55991 | 39979 ft | 473 kts | 307° |
| 2026-04-24 19:56 | 54.43866 | 16.38233 | 39955 ft | 473 kts | 307° |
| 2026-04-24 19:57 | 54.51921 | 16.20260 | 39884 ft | 474 kts | 307° |
| 2026-04-24 19:57 | 54.59899 | 16.02330 | 39961 ft | 474 kts | 307° |
| 2026-04-24 19:58 | 54.67870 | 15.84284 | 39961 ft | 474 kts | 307° |
| 2026-04-24 19:58 | 54.75811 | 15.66180 | 39959 ft | 475 kts | 307° |
| 2026-04-24 19:58 | 54.81205 | 15.53803 | 39849 ft | 475 kts | 307° |
| 2026-04-24 19:59 | 54.83197 | 15.49213 | 39903 ft | 475 kts | 307° |
| 2026-04-24 19:59 | 54.87186 | 15.40002 | 39904 ft | 483 kts | 307° |
| 2026-04-24 20:00 | 54.91208 | 15.30676 | 39914 ft | 491 kts | 306° |
| 2026-04-24 20:00 | 54.93247 | 15.25861 | 39113 ft | 506 kts | 306° |
| 2026-04-24 20:00 | 54.95325 | 15.20937 | 38384 ft | 496 kts | 306° |
| 2026-04-24 20:00 | 54.97296 | 15.16252 | 37637 ft | 473 kts | 306° |
| 2026-04-24 20:01 | 54.99185 | 15.11748 | 36859 ft | 454 kts | 306° |
| 2026-04-24 20:01 | 55.01002 | 15.07408 | 36081 ft | 437 kts | 306° |
| 2026-04-24 20:01 | 55.02750 | 15.03226 | 35315 ft | 422 kts | 306° |
| 2026-04-24 20:01 | 55.04440 | 14.99177 | 34545 ft | 408 kts | 306° |
| 2026-04-24 20:02 | 55.06069 | 14.95267 | 33774 ft | 396 kts | 306° |
| 2026-04-24 20:02 | 55.07649 | 14.91468 | 33004 ft | 385 kts | 306° |
| 2026-04-24 20:02 | 55.09202 | 14.87730 | 32226 ft | 376 kts | 306° |
| 2026-04-24 20:02 | 55.10712 | 14.84088 | 31439 ft | 368 kts | 306° |
| 2026-04-24 20:03 | 55.12186 | 14.80529 | 30600 ft | 362 kts | 306° |
| 2026-04-24 20:03 | 55.13640 | 14.77011 | 29764 ft | 356 kts | 306° |
| 2026-04-24 20:03 | 55.15059 | 14.73575 | 28934 ft | 351 kts | 306° |
| 2026-04-24 20:03 | 55.16472 | 14.70148 | 28094 ft | 346 kts | 306° |
| 2026-04-24 20:04 | 55.17866 | 14.66763 | 27253 ft | 342 kts | 306° |
| 2026-04-24 20:04 | 55.19234 | 14.63438 | 26415 ft | 337 kts | 306° |
| 2026-04-24 20:04 | 55.20571 | 14.60183 | 25584 ft | 333 kts | 306° |
| 2026-04-24 20:04 | 55.21926 | 14.56881 | 24741 ft | 330 kts | 307° |
| 2026-04-24 20:05 | 55.23244 | 14.53665 | 23915 ft | 326 kts | 307° |
| 2026-04-24 20:05 | 55.24535 | 14.50508 | 23092 ft | 323 kts | 307° |
| 2026-04-24 20:05 | 55.25844 | 14.47309 | 22246 ft | 319 kts | 307° |
| 2026-04-24 20:05 | 55.27106 | 14.44217 | 21417 ft | 316 kts | 306° |
| 2026-04-24 20:06 | 55.28369 | 14.41089 | 20561 ft | 313 kts | 302° |
| 2026-04-24 20:06 | 55.29085 | 14.37579 | 19730 ft | 311 kts | 286° |
| 2026-04-24 20:06 | 55.29636 | 14.33964 | 18868 ft | 308 kts | 287° |
| 2026-04-24 20:06 | 55.30188 | 14.30351 | 17998 ft | 305 kts | 287° |
| 2026-04-24 20:07 | 55.30541 | 14.28018 | 17433 ft | 302 kts | 287° |
| 2026-04-24 20:07 | 55.31258 | 14.23254 | 16281 ft | 312 kts | 287° |
| 2026-04-24 20:07 | 55.31817 | 14.19535 | 15454 ft | 327 kts | 287° |
| 2026-04-24 20:07 | 55.32384 | 14.15711 | 15019 ft | 322 kts | 287° |
| 2026-04-24 20:08 | 55.32949 | 14.11908 | 14962 ft | 321 kts | 287° |
| 2026-04-24 20:08 | 55.33505 | 14.08159 | 14674 ft | 328 kts | 287° |
| 2026-04-24 20:08 | 55.34089 | 14.04237 | 13822 ft | 327 kts | 287° |
| 2026-04-24 20:08 | 55.34642 | 14.00474 | 12985 ft | 315 kts | 287° |
| 2026-04-24 20:09 | 55.35177 | 13.96845 | 12135 ft | 307 kts | 287° |
| 2026-04-24 20:09 | 55.35701 | 13.93277 | 11217 ft | 302 kts | 286° |
| 2026-04-24 20:09 | 55.36215 | 13.89778 | 10307 ft | 299 kts | 286° |
| 2026-04-24 20:09 | 55.36729 | 13.86269 | 9383 ft | 298 kts | 286° |
| 2026-04-24 20:10 | 55.37233 | 13.82817 | 9026 ft | 282 kts | 285° |
| 2026-04-24 20:10 | 55.37692 | 13.79640 | 8969 ft | 264 kts | 286° |
| 2026-04-24 20:10 | 55.38143 | 13.76532 | 8936 ft | 257 kts | 286° |
| 2026-04-24 20:10 | 55.38591 | 13.73444 | 9011 ft | 267 kts | 286° |
| 2026-04-24 20:11 | 55.39039 | 13.70349 | 8984 ft | 262 kts | 286° |
| 2026-04-24 20:11 | 55.39480 | 13.67296 | 8988 ft | 258 kts | 286° |
| 2026-04-24 20:11 | 55.39917 | 13.64262 | 8983 ft | 257 kts | 286° |
| 2026-04-24 20:11 | 55.40357 | 13.61207 | 8984 ft | 257 kts | 286° |
| 2026-04-24 20:12 | 55.40795 | 13.58161 | 8984 ft | 256 kts | 286° |
| 2026-04-24 20:12 | 55.41242 | 13.55137 | 8984 ft | 256 kts | 288° |
| 2026-04-24 20:12 | 55.41766 | 13.52147 | 8985 ft | 255 kts | 289° |
| 2026-04-24 20:12 | 55.42283 | 13.49167 | 8984 ft | 255 kts | 289° |
| 2026-04-24 20:13 | 55.42800 | 13.46180 | 8984 ft | 255 kts | 289° |
| 2026-04-24 20:13 | 55.43316 | 13.43197 | 8934 ft | 257 kts | 289° |
| 2026-04-24 20:13 | 55.43832 | 13.40207 | 8338 ft | 252 kts | 288° |
| 2026-04-24 20:13 | 55.44326 | 13.37333 | 8009 ft | 236 kts | 288° |
| 2026-04-24 20:14 | 55.44774 | 13.34725 | 7961 ft | 211 kts | 288° |
| 2026-04-24 20:14 | 55.45185 | 13.32359 | 7961 ft | 198 kts | 288° |
| 2026-04-24 20:14 | 55.45366 | 13.30018 | 7972 ft | 192 kts | 273° |
| 2026-04-24 20:14 | 55.45411 | 13.27582 | 7556 ft | 202 kts | 274° |
| 2026-04-24 20:15 | 55.45464 | 13.25074 | 7159 ft | 210 kts | 274° |
| 2026-04-24 20:15 | 55.45513 | 13.22456 | 6700 ft | 214 kts | 273° |
| 2026-04-24 20:15 | 55.45559 | 13.19880 | 6224 ft | 213 kts | 273° |
| 2026-04-24 20:15 | 55.45604 | 13.17291 | 5743 ft | 212 kts | 273° |
| 2026-04-24 20:16 | 55.45649 | 13.14697 | 5254 ft | 209 kts | 273° |
| 2026-04-24 20:16 | 55.45693 | 13.12163 | 4768 ft | 207 kts | 273° |
| 2026-04-24 20:16 | 55.45736 | 13.09644 | 4282 ft | 205 kts | 272° |
| 2026-04-24 20:16 | 55.45778 | 13.07160 | 3800 ft | 204 kts | 272° |
| 2026-04-24 20:17 | 55.45820 | 13.04656 | 3313 ft | 203 kts | 272° |
| 2026-04-24 20:17 | 55.45897 | 12.99757 | 2515 ft | 193 kts | 272° |
| 2026-04-24 20:17 | 55.45934 | 12.97455 | 2486 ft | 186 kts | 273° |
| 2026-04-24 20:18 | 55.45969 | 12.95263 | 2479 ft | 178 kts | 273° |
| 2026-04-24 20:18 | 55.46006 | 12.93024 | 2517 ft | 201 kts | 273° |
| 2026-04-24 20:18 | 55.46045 | 12.90548 | 2508 ft | 210 kts | 272° |
| 2026-04-24 20:18 | 55.46085 | 12.87931 | 2509 ft | 215 kts | 272° |
| 2026-04-24 20:19 | 55.46124 | 12.85271 | 2501 ft | 217 kts | 272° |
| 2026-04-24 20:19 | 55.46163 | 12.82634 | 2498 ft | 218 kts | 272° |
| 2026-04-24 20:19 | 55.46202 | 12.79935 | 2497 ft | 219 kts | 272° |
| 2026-04-24 20:19 | 55.46241 | 12.77286 | 2496 ft | 219 kts | 272° |
| 2026-04-24 20:20 | 55.46279 | 12.74586 | 2496 ft | 220 kts | 272° |
| 2026-04-24 20:20 | 55.46316 | 12.71911 | 2495 ft | 220 kts | 272° |
| 2026-04-24 20:20 | 55.46354 | 12.69192 | 2495 ft | 220 kts | 272° |
| 2026-04-24 20:20 | 55.46390 | 12.66495 | 2495 ft | 220 kts | 272° |
| 2026-04-24 20:21 | 55.46425 | 12.63832 | 2495 ft | 220 kts | 272° |
| 2026-04-24 20:21 | 55.46461 | 12.61139 | 2495 ft | 220 kts | 272° |
| 2026-04-24 20:21 | 55.46496 | 12.58426 | 2498 ft | 220 kts | 272° |
| 2026-04-24 20:21 | 55.46530 | 12.55723 | 2501 ft | 220 kts | 272° |
| 2026-04-24 20:22 | 55.46563 | 12.53045 | 2505 ft | 220 kts | 272° |
| 2026-04-24 20:22 | 55.46596 | 12.50350 | 2507 ft | 220 kts | 272° |
| 2026-04-24 20:22 | 55.46630 | 12.47657 | 2506 ft | 220 kts | 273° |
| 2026-04-24 20:22 | 55.47093 | 12.45150 | 2477 ft | 219 kts | 309° |
| 2026-04-24 20:23 | 55.48397 | 12.43847 | 2492 ft | 219 kts | 351° |
| 2026-04-24 20:23 | 55.49854 | 12.44216 | 2519 ft | 205 kts | 12° |
| 2026-04-24 20:23 | 55.51204 | 12.44428 | 2618 ft | 185 kts | 14° |
| 2026-04-24 20:23 | 55.52213 | 12.45643 | 2602 ft | 174 kts | 49° |
| 2026-04-24 20:24 | 55.52819 | 12.47457 | 2145 ft | 175 kts | 62° |
| 2026-04-24 20:24 | 55.53371 | 12.49288 | 1931 ft | 158 kts | 52° |
| 2026-04-24 20:24 | 55.53887 | 12.50849 | 1953 ft | 143 kts | 76° |
| 2026-04-24 20:24 | 55.54134 | 12.52458 | 1858 ft | 130 kts | 62° |
| 2026-04-24 20:25 | 55.54657 | 12.53732 | 1562 ft | 126 kts | 41° |
| 2026-04-24 20:25 | 55.55336 | 12.54772 | 1155 ft | 133 kts | 36° |
| 2026-04-24 20:25 | 55.56050 | 12.55756 | 732 ft | 129 kts | 34° |
| 2026-04-24 20:25 | 55.56760 | 12.56696 | 494 ft | 127 kts | 34° |
| 2026-04-24 20:26 | 55.57447 | 12.57650 | 371 ft | 127 kts | 37° |
| 2026-04-24 20:26 | 55.58116 | 12.58674 | 310 ft | 128 kts | 39° |
| 2026-04-24 20:26 | 55.58756 | 12.59657 | 149 ft | 121 kts | 37° |
| 2026-04-24 20:26 | 55.59396 | 12.60632 | 14 ft | 116 kts | 38° |
| 2026-04-24 20:27 | 55.59907 | 12.61417 | 9 ft | 75 kts | 40° |
| 2026-04-24 20:27 | 55.60162 | 12.61811 | 9 ft | 44 kts | 31° |
| 2026-04-24 20:27 | 55.60350 | 12.62099 | 12 ft | 23 kts | 43° |
| 2026-04-24 20:27 | 55.60482 | 12.62267 | 12 ft | 24 kts | 24° |
| 2026-04-24 20:28 | 55.60626 | 12.62342 | 12 ft | 14 kts | 12° |
| 2026-04-24 20:28 | 55.60649 | 12.62350 | 12 ft | 0 kts | 12° |
| 2026-04-24 20:29 | 55.60655 | 12.62352 | 12 ft | 4 kts | 12° |
| 2026-04-24 20:29 | 55.60744 | 12.62384 | 14 ft | 17 kts | 16° |
| 2026-04-24 20:29 | 55.60847 | 12.62489 | 16 ft | 20 kts | 42° |
| 2026-04-24 20:30 | 55.60997 | 12.62720 | 19 ft | 31 kts | 39° |
| 2026-04-24 20:30 | 55.61161 | 12.62974 | 19 ft | 31 kts | 40° |
| 2026-04-24 20:30 | 55.61327 | 12.63232 | 19 ft | 31 kts | 41° |
| 2026-04-24 20:30 | 55.61496 | 12.63493 | 19 ft | 32 kts | 42° |
| 2026-04-24 20:31 | 55.61661 | 12.63749 | 20 ft | 31 kts | 41° |
| 2026-04-24 20:31 | 55.61832 | 12.64012 | 19 ft | 32 kts | 41° |
| 2026-04-24 20:31 | 55.62036 | 12.64208 | 14 ft | 32 kts | 25° |
| 2026-04-24 20:31 | 55.62158 | 12.64311 | 12 ft | 11 kts | 26° |
| 2026-04-24 20:32 | 55.62238 | 12.64376 | 12 ft | 13 kts | 22° |
| 2026-04-24 20:32 | 55.62334 | 12.64423 | 12 ft | 14 kts | 15° |
| 2026-04-24 20:32 | 55.62437 | 12.64471 | 14 ft | 14 kts | 15° |
| 2026-04-24 20:32 | 55.62510 | 12.64439 | 14 ft | 12 kts | 303° |
| 2026-04-24 20:33 | 55.62564 | 12.64296 | 13 ft | 12 kts | 303° |
| 2026-04-24 20:33 | 55.62618 | 12.64275 | 15 ft | 9 kts | 32° |
| 2026-04-24 20:33 | 55.62676 | 12.64322 | 16 ft | 9 kts | 19° |
| 2026-04-24 20:33 | 55.62740 | 12.64374 | 16 ft | 10 kts | 27° |
| 2026-04-24 20:34 | 55.62789 | 12.64400 | 15 ft | 0 kts | 13° |
| 2026-04-24 20:34 | 55.62792 | 12.64386 | 15 ft | 5 kts | 269° |
| 2026-04-24 20:34 | 55.62776 | 12.64315 | 15 ft | 0 kts | 254° |